sensor_id;sensor_type;location;lat;lon;timestamp;P1;durP1;ratioP1;P2;durP2;ratioP2
51184;SDS011;37248;59.350;18.050;2022-09-13T00:00:02;4.43;;;2.03;;
51184;SDS011;37248;59.350;18.050;2022-09-13T00:02:28;4.70;;;2.10;;
51184;SDS011;37248;59.350;18.050;2022-09-13T00:04:53;3.53;;;2.07;;
51184;SDS011;37248;59.350;18.050;2022-09-13T00:07:18;4.10;;;2.17;;
51184;SDS011;37248;59.350;18.050;2022-09-13T00:09:43;3.63;;;2.00;;
51184;SDS011;37248;59.350;18.050;2022-09-13T00:12:08;5.67;;;1.87;;
51184;SDS011;37248;59.350;18.050;2022-09-13T00:14:34;2.93;;;1.97;;
51184;SDS011;37248;59.350;18.050;2022-09-13T00:16:59;5.50;;;2.10;;
51184;SDS011;37248;59.350;18.050;2022-09-13T00:19:24;4.73;;;1.90;;
51184;SDS011;37248;59.350;18.050;2022-09-13T00:21:50;4.00;;;1.90;;
51184;SDS011;37248;59.350;18.050;2022-09-13T00:24:15;3.60;;;2.20;;
51184;SDS011;37248;59.350;18.050;2022-09-13T00:26:41;4.50;;;1.80;;
51184;SDS011;37248;59.350;18.050;2022-09-13T00:29:06;3.10;;;1.73;;
51184;SDS011;37248;59.350;18.050;2022-09-13T00:31:31;4.97;;;1.88;;
51184;SDS011;37248;59.350;18.050;2022-09-13T00:33:57;3.10;;;2.07;;
51184;SDS011;37248;59.350;18.050;2022-09-13T00:36:23;4.70;;;2.15;;
51184;SDS011;37248;59.350;18.050;2022-09-13T00:38:48;2.80;;;1.83;;
51184;SDS011;37248;59.350;18.050;2022-09-13T00:41:14;2.87;;;1.70;;
51184;SDS011;37248;59.350;18.050;2022-09-13T00:46:09;3.50;;;2.00;;
51184;SDS011;37248;59.350;18.050;2022-09-13T00:48:35;2.90;;;1.48;;
51184;SDS011;37248;59.350;18.050;2022-09-13T00:51:01;2.42;;;1.50;;
51184;SDS011;37248;59.350;18.050;2022-09-13T00:53:28;2.90;;;1.80;;
51184;SDS011;37248;59.350;18.050;2022-09-13T00:58:26;3.20;;;1.75;;
51184;SDS011;37248;59.350;18.050;2022-09-13T01:00:54;3.08;;;1.55;;
51184;SDS011;37248;59.350;18.050;2022-09-13T01:03:20;2.97;;;1.77;;
51184;SDS011;37248;59.350;18.050;2022-09-13T01:05:47;3.00;;;1.77;;
51184;SDS011;37248;59.350;18.050;2022-09-13T01:08:14;2.47;;;1.60;;
51184;SDS011;37248;59.350;18.050;2022-09-13T01:10:46;3.20;;;1.70;;
51184;SDS011;37248;59.350;18.050;2022-09-13T01:13:28;5.00;;;1.50;;
51184;SDS011;37248;59.350;18.050;2022-09-13T01:15:56;2.80;;;1.70;;
51184;SDS011;37248;59.350;18.050;2022-09-13T01:18:21;2.17;;;1.60;;
51184;SDS011;37248;59.350;18.050;2022-09-13T01:30:48;4.53;;;1.70;;
51184;SDS011;37248;59.350;18.050;2022-09-13T01:38:58;2.47;;;1.30;;
51184;SDS011;37248;59.350;18.050;2022-09-13T01:49:45;3.38;;;1.30;;
51184;SDS011;37248;59.350;18.050;2022-09-13T01:52:28;2.00;;;1.10;;
51184;SDS011;37248;59.350;18.050;2022-09-13T01:55:17;4.00;;;1.30;;
51184;SDS011;37248;59.350;18.050;2022-09-13T01:57:54;2.43;;;1.20;;
51184;SDS011;37248;59.350;18.050;2022-09-13T02:00:22;1.80;;;1.02;;
51184;SDS011;37248;59.350;18.050;2022-09-13T02:02:48;2.90;;;1.00;;
51184;SDS011;37248;59.350;18.050;2022-09-13T02:07:56;3.25;;;1.30;;
51184;SDS011;37248;59.350;18.050;2022-09-13T02:10:32;2.30;;;1.10;;
51184;SDS011;37248;59.350;18.050;2022-09-13T02:12:59;1.83;;;1.08;;
51184;SDS011;37248;59.350;18.050;2022-09-13T02:15:28;2.60;;;0.95;;
51184;SDS011;37248;59.350;18.050;2022-09-13T02:18:07;5.35;;;1.33;;
51184;SDS011;37248;59.350;18.050;2022-09-13T02:20:37;1.90;;;1.00;;
51184;SDS011;37248;59.350;18.050;2022-09-13T02:23:08;2.50;;;1.10;;
51184;SDS011;37248;59.350;18.050;2022-09-13T02:25:34;1.90;;;1.00;;
51184;SDS011;37248;59.350;18.050;2022-09-13T02:28:02;1.50;;;0.90;;
51184;SDS011;37248;59.350;18.050;2022-09-13T02:30:30;4.55;;;1.30;;
51184;SDS011;37248;59.350;18.050;2022-09-13T02:32:58;4.07;;;1.23;;
51184;SDS011;37248;59.350;18.050;2022-09-13T02:35:39;2.53;;;1.00;;
51184;SDS011;37248;59.350;18.050;2022-09-13T02:38:09;2.47;;;1.00;;
51184;SDS011;37248;59.350;18.050;2022-09-13T02:40:41;2.78;;;1.10;;
51184;SDS011;37248;59.350;18.050;2022-09-13T02:43:09;2.72;;;1.00;;
51184;SDS011;37248;59.350;18.050;2022-09-13T02:45:47;2.40;;;0.80;;
51184;SDS011;37248;59.350;18.050;2022-09-13T02:48:27;2.70;;;0.90;;
51184;SDS011;37248;59.350;18.050;2022-09-13T02:50:58;2.97;;;0.70;;
51184;SDS011;37248;59.350;18.050;2022-09-13T02:56:10;3.43;;;1.40;;
51184;SDS011;37248;59.350;18.050;2022-09-13T02:58:43;2.28;;;0.80;;
51184;SDS011;37248;59.350;18.050;2022-09-13T03:01:10;1.98;;;0.75;;
51184;SDS011;37248;59.350;18.050;2022-09-13T03:03:35;2.20;;;0.80;;
51184;SDS011;37248;59.350;18.050;2022-09-13T03:06:00;1.83;;;0.80;;
51184;SDS011;37248;59.350;18.050;2022-09-13T03:08:26;2.50;;;0.80;;
51184;SDS011;37248;59.350;18.050;2022-09-13T03:27:07;7.50;;;1.10;;
51184;SDS011;37248;59.350;18.050;2022-09-13T03:29:46;5.57;;;1.40;;
51184;SDS011;37248;59.350;18.050;2022-09-13T03:39:53;2.57;;;1.20;;
51184;SDS011;37248;59.350;18.050;2022-09-13T03:42:55;4.63;;;1.00;;
51184;SDS011;37248;59.350;18.050;2022-09-13T03:45:12;4.68;;;1.10;;
51184;SDS011;37248;59.350;18.050;2022-09-13T03:47:39;5.22;;;1.23;;
51184;SDS011;37248;59.350;18.050;2022-09-13T03:50:06;3.28;;;1.08;;
51184;SDS011;37248;59.350;18.050;2022-09-13T03:52:32;2.75;;;1.10;;
51184;SDS011;37248;59.350;18.050;2022-09-13T03:54:58;1.50;;;0.87;;
51184;SDS011;37248;59.350;18.050;2022-09-13T03:57:23;3.80;;;1.00;;
51184;SDS011;37248;59.350;18.050;2022-09-13T03:59:49;2.33;;;1.00;;
51184;SDS011;37248;59.350;18.050;2022-09-13T04:02:15;2.38;;;1.10;;
51184;SDS011;37248;59.350;18.050;2022-09-13T04:04:41;1.90;;;0.80;;
51184;SDS011;37248;59.350;18.050;2022-09-13T04:07:06;2.97;;;0.80;;
51184;SDS011;37248;59.350;18.050;2022-09-13T04:09:32;3.23;;;1.10;;
51184;SDS011;37248;59.350;18.050;2022-09-13T04:11:57;1.17;;;0.80;;
51184;SDS011;37248;59.350;18.050;2022-09-13T04:14:23;3.40;;;0.90;;
51184;SDS011;37248;59.350;18.050;2022-09-13T04:16:50;1.43;;;0.80;;
51184;SDS011;37248;59.350;18.050;2022-09-13T04:19:16;2.83;;;0.90;;
51184;SDS011;37248;59.350;18.050;2022-09-13T04:21:41;3.00;;;0.90;;
51184;SDS011;37248;59.350;18.050;2022-09-13T04:24:06;2.70;;;0.80;;
51184;SDS011;37248;59.350;18.050;2022-09-13T04:26:31;1.87;;;0.67;;
51184;SDS011;37248;59.350;18.050;2022-09-13T04:28:58;2.20;;;0.80;;
51184;SDS011;37248;59.350;18.050;2022-09-13T04:31:24;1.57;;;0.73;;
51184;SDS011;37248;59.350;18.050;2022-09-13T04:33:49;2.80;;;0.90;;
51184;SDS011;37248;59.350;18.050;2022-09-13T04:36:14;2.53;;;0.90;;
51184;SDS011;37248;59.350;18.050;2022-09-13T04:38:40;1.70;;;0.70;;
51184;SDS011;37248;59.350;18.050;2022-09-13T04:41:06;1.43;;;0.80;;
51184;SDS011;37248;59.350;18.050;2022-09-13T04:43:31;1.63;;;0.73;;
51184;SDS011;37248;59.350;18.050;2022-09-13T04:45:59;2.10;;;0.70;;
51184;SDS011;37248;59.350;18.050;2022-09-13T04:48:25;1.08;;;0.80;;
51184;SDS011;37248;59.350;18.050;2022-09-13T04:50:50;2.47;;;0.77;;
51184;SDS011;37248;59.350;18.050;2022-09-13T04:53:16;1.43;;;0.70;;
51184;SDS011;37248;59.350;18.050;2022-09-13T04:55:42;1.50;;;0.68;;
51184;SDS011;37248;59.350;18.050;2022-09-13T04:58:07;2.30;;;0.70;;
51184;SDS011;37248;59.350;18.050;2022-09-13T05:00:33;2.87;;;0.60;;
51184;SDS011;37248;59.350;18.050;2022-09-13T05:02:58;1.17;;;0.70;;
51184;SDS011;37248;59.350;18.050;2022-09-13T05:05:24;1.42;;;0.70;;
51184;SDS011;37248;59.350;18.050;2022-09-13T05:07:53;1.60;;;0.60;;
51184;SDS011;37248;59.350;18.050;2022-09-13T05:10:18;5.30;;;0.80;;
51184;SDS011;37248;59.350;18.050;2022-09-13T05:12:44;3.23;;;0.90;;
51184;SDS011;37248;59.350;18.050;2022-09-13T05:15:09;2.37;;;0.80;;
51184;SDS011;37248;59.350;18.050;2022-09-13T05:17:36;2.60;;;0.70;;
51184;SDS011;37248;59.350;18.050;2022-09-13T05:20:01;1.70;;;0.70;;
51184;SDS011;37248;59.350;18.050;2022-09-13T05:22:27;1.75;;;0.68;;
51184;SDS011;37248;59.350;18.050;2022-09-13T05:24:52;1.10;;;0.70;;
51184;SDS011;37248;59.350;18.050;2022-09-13T05:27:17;3.20;;;0.80;;
51184;SDS011;37248;59.350;18.050;2022-09-13T05:29:42;1.33;;;0.53;;
51184;SDS011;37248;59.350;18.050;2022-09-13T05:32:08;1.60;;;1.00;;
51184;SDS011;37248;59.350;18.050;2022-09-13T05:34:33;1.10;;;0.57;;
51184;SDS011;37248;59.350;18.050;2022-09-13T05:36:58;4.53;;;0.83;;
51184;SDS011;37248;59.350;18.050;2022-09-13T05:39:23;1.30;;;0.70;;
51184;SDS011;37248;59.350;18.050;2022-09-13T05:41:48;3.50;;;0.80;;
51184;SDS011;37248;59.350;18.050;2022-09-13T05:44:14;1.63;;;0.80;;
51184;SDS011;37248;59.350;18.050;2022-09-13T05:46:39;1.40;;;0.60;;
51184;SDS011;37248;59.350;18.050;2022-09-13T05:49:05;2.65;;;0.70;;
51184;SDS011;37248;59.350;18.050;2022-09-13T05:51:30;1.70;;;0.50;;
51184;SDS011;37248;59.350;18.050;2022-09-13T05:53:56;2.10;;;0.60;;
51184;SDS011;37248;59.350;18.050;2022-09-13T05:56:23;2.10;;;0.50;;
51184;SDS011;37248;59.350;18.050;2022-09-13T05:58:49;4.78;;;0.60;;
51184;SDS011;37248;59.350;18.050;2022-09-13T06:01:16;3.63;;;0.63;;
51184;SDS011;37248;59.350;18.050;2022-09-13T06:03:41;2.88;;;0.60;;
51184;SDS011;37248;59.350;18.050;2022-09-13T06:06:07;3.87;;;0.63;;
51184;SDS011;37248;59.350;18.050;2022-09-13T06:08:33;5.50;;;0.65;;
51184;SDS011;37248;59.350;18.050;2022-09-13T06:10:59;2.57;;;0.53;;
51184;SDS011;37248;59.350;18.050;2022-09-13T06:13:25;2.50;;;0.43;;
51184;SDS011;37248;59.350;18.050;2022-09-13T06:15:51;2.08;;;0.60;;
51184;SDS011;37248;59.350;18.050;2022-09-13T06:18:16;1.17;;;0.55;;
51184;SDS011;37248;59.350;18.050;2022-09-13T06:20:42;4.25;;;0.90;;
51184;SDS011;37248;59.350;18.050;2022-09-13T06:23:07;5.22;;;0.50;;
51184;SDS011;37248;59.350;18.050;2022-09-13T06:25:32;8.03;;;0.90;;
51184;SDS011;37248;59.350;18.050;2022-09-13T06:27:58;6.07;;;1.00;;
51184;SDS011;37248;59.350;18.050;2022-09-13T06:30:24;4.93;;;1.00;;
51184;SDS011;37248;59.350;18.050;2022-09-13T06:32:50;5.18;;;0.50;;
51184;SDS011;37248;59.350;18.050;2022-09-13T06:35:15;3.40;;;0.70;;
51184;SDS011;37248;59.350;18.050;2022-09-13T06:37:40;1.77;;;0.50;;
51184;SDS011;37248;59.350;18.050;2022-09-13T06:40:06;1.73;;;0.70;;
51184;SDS011;37248;59.350;18.050;2022-09-13T06:42:34;5.40;;;0.70;;
51184;SDS011;37248;59.350;18.050;2022-09-13T06:44:59;3.50;;;0.50;;
51184;SDS011;37248;59.350;18.050;2022-09-13T06:47:25;2.20;;;0.57;;
51184;SDS011;37248;59.350;18.050;2022-09-13T06:49:50;2.00;;;0.60;;
51184;SDS011;37248;59.350;18.050;2022-09-13T06:52:15;3.30;;;0.60;;
51184;SDS011;37248;59.350;18.050;2022-09-13T06:54:40;3.30;;;0.90;;
51184;SDS011;37248;59.350;18.050;2022-09-13T06:57:06;2.20;;;0.70;;
51184;SDS011;37248;59.350;18.050;2022-09-13T06:59:31;4.93;;;0.93;;
51184;SDS011;37248;59.350;18.050;2022-09-13T07:01:58;4.55;;;1.20;;
51184;SDS011;37248;59.350;18.050;2022-09-13T07:04:23;3.77;;;1.10;;
51184;SDS011;37248;59.350;18.050;2022-09-13T07:06:49;3.60;;;1.10;;
51184;SDS011;37248;59.350;18.050;2022-09-13T07:09:15;5.03;;;1.20;;
51184;SDS011;37248;59.350;18.050;2022-09-13T07:11:42;3.22;;;1.25;;
51184;SDS011;37248;59.350;18.050;2022-09-13T07:14:10;2.75;;;1.00;;
51184;SDS011;37248;59.350;18.050;2022-09-13T07:16:37;3.13;;;1.17;;
51184;SDS011;37248;59.350;18.050;2022-09-13T07:19:06;3.93;;;1.23;;
51184;SDS011;37248;59.350;18.050;2022-09-13T07:21:32;2.77;;;1.23;;
51184;SDS011;37248;59.350;18.050;2022-09-13T07:23:57;2.55;;;1.58;;
51184;SDS011;37248;59.350;18.050;2022-09-13T07:26:23;3.07;;;1.50;;
51184;SDS011;37248;59.350;18.050;2022-09-13T07:28:50;2.33;;;1.60;;
51184;SDS011;37248;59.350;18.050;2022-09-13T07:31:17;3.22;;;1.55;;
51184;SDS011;37248;59.350;18.050;2022-09-13T07:33:44;4.00;;;1.90;;
51184;SDS011;37248;59.350;18.050;2022-09-13T07:36:10;3.70;;;1.83;;
51184;SDS011;37248;59.350;18.050;2022-09-13T07:38:40;3.83;;;2.08;;
51184;SDS011;37248;59.350;18.050;2022-09-13T07:41:07;6.70;;;2.28;;
51184;SDS011;37248;59.350;18.050;2022-09-13T07:43:34;4.53;;;2.30;;
51184;SDS011;37248;59.350;18.050;2022-09-13T07:46:01;2.05;;;1.80;;
51184;SDS011;37248;59.350;18.050;2022-09-13T07:48:27;6.10;;;2.40;;
51184;SDS011;37248;59.350;18.050;2022-09-13T07:50:57;4.28;;;2.47;;
51184;SDS011;37248;59.350;18.050;2022-09-13T07:53:22;3.47;;;2.55;;
51184;SDS011;37248;59.350;18.050;2022-09-13T07:55:47;4.23;;;2.60;;
51184;SDS011;37248;59.350;18.050;2022-09-13T07:58:12;3.60;;;2.43;;
51184;SDS011;37248;59.350;18.050;2022-09-13T08:00:38;3.87;;;2.60;;
51184;SDS011;37248;59.350;18.050;2022-09-13T08:03:03;3.47;;;2.30;;
51184;SDS011;37248;59.350;18.050;2022-09-13T08:05:28;4.10;;;2.67;;
51184;SDS011;37248;59.350;18.050;2022-09-13T08:07:54;4.10;;;2.90;;
51184;SDS011;37248;59.350;18.050;2022-09-13T08:10:19;5.27;;;2.50;;
51184;SDS011;37248;59.350;18.050;2022-09-13T08:12:44;4.23;;;2.60;;
51184;SDS011;37248;59.350;18.050;2022-09-13T08:15:09;3.83;;;2.63;;
51184;SDS011;37248;59.350;18.050;2022-09-13T08:17:35;3.10;;;2.37;;
51184;SDS011;37248;59.350;18.050;2022-09-13T08:20:00;3.65;;;2.35;;
51184;SDS011;37248;59.350;18.050;2022-09-13T08:22:25;3.67;;;2.60;;
51184;SDS011;37248;59.350;18.050;2022-09-13T08:24:50;4.83;;;2.70;;
51184;SDS011;37248;59.350;18.050;2022-09-13T08:27:16;3.27;;;2.50;;
51184;SDS011;37248;59.350;18.050;2022-09-13T08:29:41;2.93;;;2.40;;
51184;SDS011;37248;59.350;18.050;2022-09-13T08:32:06;2.47;;;1.97;;
51184;SDS011;37248;59.350;18.050;2022-09-13T08:34:31;3.23;;;2.33;;
51184;SDS011;37248;59.350;18.050;2022-09-13T08:36:57;3.28;;;2.20;;
51184;SDS011;37248;59.350;18.050;2022-09-13T08:39:22;4.03;;;2.40;;
51184;SDS011;37248;59.350;18.050;2022-09-13T08:41:50;3.87;;;2.33;;
51184;SDS011;37248;59.350;18.050;2022-09-13T08:46:45;3.90;;;2.30;;
51184;SDS011;37248;59.350;18.050;2022-09-13T08:49:15;2.83;;;2.05;;
51184;SDS011;37248;59.350;18.050;2022-09-13T08:54:12;2.83;;;2.30;;
51184;SDS011;37248;59.350;18.050;2022-09-13T08:56:43;4.00;;;2.50;;
51184;SDS011;37248;59.350;18.050;2022-09-13T09:01:45;5.93;;;2.65;;
51184;SDS011;37248;59.350;18.050;2022-09-13T09:04:21;3.28;;;2.10;;
51184;SDS011;37248;59.350;18.050;2022-09-13T09:09:30;10.23;;;2.30;;
51184;SDS011;37248;59.350;18.050;2022-09-13T09:11:58;4.80;;;2.33;;
51184;SDS011;37248;59.350;18.050;2022-09-13T09:14:36;7.60;;;2.50;;
51184;SDS011;37248;59.350;18.050;2022-09-13T09:17:14;26.33;;;4.90;;
51184;SDS011;37248;59.350;18.050;2022-09-13T09:19:41;17.27;;;3.63;;
51184;SDS011;37248;59.350;18.050;2022-09-13T09:22:27;30.60;;;4.65;;
51184;SDS011;37248;59.350;18.050;2022-09-13T09:24:55;48.65;;;7.63;;
51184;SDS011;37248;59.350;18.050;2022-09-13T09:27:21;40.75;;;5.13;;
51184;SDS011;37248;59.350;18.050;2022-09-13T09:29:47;70.30;;;9.85;;
51184;SDS011;37248;59.350;18.050;2022-09-13T09:34:50;122.28;;;14.57;;
51184;SDS011;37248;59.350;18.050;2022-09-13T09:37:20;90.22;;;10.73;;
51184;SDS011;37248;59.350;18.050;2022-09-13T09:39:47;80.30;;;10.80;;
51184;SDS011;37248;59.350;18.050;2022-09-13T09:42:20;89.78;;;12.13;;
51184;SDS011;37248;59.350;18.050;2022-09-13T09:44:47;34.85;;;5.25;;
51184;SDS011;37248;59.350;18.050;2022-09-13T09:47:15;36.42;;;4.97;;
51184;SDS011;37248;59.350;18.050;2022-09-13T09:49:43;25.98;;;5.32;;
51184;SDS011;37248;59.350;18.050;2022-09-13T09:57:50;20.08;;;4.60;;
51184;SDS011;37248;59.350;18.050;2022-09-13T10:00:16;19.65;;;3.58;;
51184;SDS011;37248;59.350;18.050;2022-09-13T10:02:44;17.38;;;3.60;;
51184;SDS011;37248;59.350;18.050;2022-09-13T10:05:11;17.97;;;3.93;;
51184;SDS011;37248;59.350;18.050;2022-09-13T10:07:37;17.52;;;3.92;;
51184;SDS011;37248;59.350;18.050;2022-09-13T10:10:19;13.93;;;2.90;;
51184;SDS011;37248;59.350;18.050;2022-09-13T10:12:46;18.73;;;3.57;;
51184;SDS011;37248;59.350;18.050;2022-09-13T10:15:17;14.50;;;3.67;;
51184;SDS011;37248;59.350;18.050;2022-09-13T10:17:45;18.55;;;2.92;;
51184;SDS011;37248;59.350;18.050;2022-09-13T10:20:24;18.00;;;3.40;;
51184;SDS011;37248;59.350;18.050;2022-09-13T10:23:10;17.02;;;3.47;;
51184;SDS011;37248;59.350;18.050;2022-09-13T10:25:36;18.52;;;4.18;;
51184;SDS011;37248;59.350;18.050;2022-09-13T10:28:01;15.80;;;3.10;;
51184;SDS011;37248;59.350;18.050;2022-09-13T10:32:54;21.33;;;3.20;;
51184;SDS011;37248;59.350;18.050;2022-09-13T10:35:20;15.73;;;3.17;;
51184;SDS011;37248;59.350;18.050;2022-09-13T10:37:45;14.03;;;3.10;;
51184;SDS011;37248;59.350;18.050;2022-09-13T10:40:26;14.37;;;2.90;;
51184;SDS011;37248;59.350;18.050;2022-09-13T10:42:53;8.98;;;2.97;;
51184;SDS011;37248;59.350;18.050;2022-09-13T10:45:21;13.63;;;2.95;;
51184;SDS011;37248;59.350;18.050;2022-09-13T10:47:47;19.67;;;2.45;;
51184;SDS011;37248;59.350;18.050;2022-09-13T10:57:38;15.00;;;2.15;;
51184;SDS011;37248;59.350;18.050;2022-09-13T11:00:17;10.00;;;2.40;;
51184;SDS011;37248;59.350;18.050;2022-09-13T11:05:22;8.77;;;2.07;;
51184;SDS011;37248;59.350;18.050;2022-09-13T11:13:19;8.90;;;2.53;;
51184;SDS011;37248;59.350;18.050;2022-09-13T11:31:53;4.13;;;1.77;;
51184;SDS011;37248;59.350;18.050;2022-09-13T11:39:21;6.00;;;2.00;;
51184;SDS011;37248;59.350;18.050;2022-09-13T11:41:52;4.65;;;2.00;;
51184;SDS011;37248;59.350;18.050;2022-09-13T11:44:24;8.18;;;2.17;;
51184;SDS011;37248;59.350;18.050;2022-09-13T11:54:37;5.68;;;2.20;;
51184;SDS011;37248;59.350;18.050;2022-09-13T11:57:10;4.80;;;2.08;;
51184;SDS011;37248;59.350;18.050;2022-09-13T11:59:41;5.90;;;2.27;;
51184;SDS011;37248;59.350;18.050;2022-09-13T12:02:56;6.63;;;2.00;;
51184;SDS011;37248;59.350;18.050;2022-09-13T12:04:58;4.70;;;2.28;;
51184;SDS011;37248;59.350;18.050;2022-09-13T12:07:33;4.50;;;1.87;;
51184;SDS011;37248;59.350;18.050;2022-09-13T12:10:02;3.35;;;1.88;;
51184;SDS011;37248;59.350;18.050;2022-09-13T12:12:31;3.60;;;1.75;;
51184;SDS011;37248;59.350;18.050;2022-09-13T12:15:16;4.07;;;2.30;;
51184;SDS011;37248;59.350;18.050;2022-09-13T12:17:44;5.32;;;2.30;;
51184;SDS011;37248;59.350;18.050;2022-09-13T12:20:12;3.58;;;1.90;;
51184;SDS011;37248;59.350;18.050;2022-09-13T12:22:39;4.68;;;2.20;;
51184;SDS011;37248;59.350;18.050;2022-09-13T12:25:09;5.77;;;2.70;;
51184;SDS011;37248;59.350;18.050;2022-09-13T12:27:54;4.07;;;2.13;;
51184;SDS011;37248;59.350;18.050;2022-09-13T12:30:21;4.43;;;2.30;;
51184;SDS011;37248;59.350;18.050;2022-09-13T12:32:48;4.85;;;2.28;;
51184;SDS011;37248;59.350;18.050;2022-09-13T12:41:07;6.70;;;2.50;;
51184;SDS011;37248;59.350;18.050;2022-09-13T13:01:05;5.63;;;2.07;;
51184;SDS011;37248;59.350;18.050;2022-09-13T13:03:41;5.05;;;1.83;;
51184;SDS011;37248;59.350;18.050;2022-09-13T13:06:09;5.10;;;1.85;;
51184;SDS011;37248;59.350;18.050;2022-09-13T13:08:35;5.80;;;1.90;;
51184;SDS011;37248;59.350;18.050;2022-09-13T13:15:57;5.10;;;2.07;;
51184;SDS011;37248;59.350;18.050;2022-09-13T13:18:27;3.13;;;1.80;;
51184;SDS011;37248;59.350;18.050;2022-09-13T13:31:06;4.10;;;1.97;;
51184;SDS011;37248;59.350;18.050;2022-09-13T13:33:41;4.70;;;1.60;;
51184;SDS011;37248;59.350;18.050;2022-09-13T13:38:54;3.70;;;1.70;;
51184;SDS011;37248;59.350;18.050;2022-09-13T13:43:57;3.42;;;1.40;;
51184;SDS011;37248;59.350;18.050;2022-09-13T13:48:48;4.30;;;1.77;;
51184;SDS011;37248;59.350;18.050;2022-09-13T13:51:14;2.57;;;1.40;;
51184;SDS011;37248;59.350;18.050;2022-09-13T13:53:41;4.57;;;1.90;;
51184;SDS011;37248;59.350;18.050;2022-09-13T13:56:18;3.40;;;1.40;;
51184;SDS011;37248;59.350;18.050;2022-09-13T13:58:45;2.78;;;1.60;;
51184;SDS011;37248;59.350;18.050;2022-09-13T14:01:21;2.38;;;1.10;;
51184;SDS011;37248;59.350;18.050;2022-09-13T14:06:27;4.05;;;1.50;;
51184;SDS011;37248;59.350;18.050;2022-09-13T14:09:10;5.88;;;1.58;;
51184;SDS011;37248;59.350;18.050;2022-09-13T14:19:43;9.23;;;1.42;;
51184;SDS011;37248;59.350;18.050;2022-09-13T14:24:49;3.90;;;1.57;;
51184;SDS011;37248;59.350;18.050;2022-09-13T14:27:16;2.38;;;1.27;;
51184;SDS011;37248;59.350;18.050;2022-09-13T14:29:49;2.67;;;1.23;;
51184;SDS011;37248;59.350;18.050;2022-09-13T14:32:17;2.83;;;1.40;;
51184;SDS011;37248;59.350;18.050;2022-09-13T14:34:50;2.90;;;1.42;;
51184;SDS011;37248;59.350;18.050;2022-09-13T14:37:17;3.53;;;1.45;;
51184;SDS011;37248;59.350;18.050;2022-09-13T14:42:19;3.00;;;1.40;;
51184;SDS011;37248;59.350;18.050;2022-09-13T14:44:45;3.87;;;1.43;;
51184;SDS011;37248;59.350;18.050;2022-09-13T14:47:13;2.73;;;1.27;;
51184;SDS011;37248;59.350;18.050;2022-09-13T14:49:42;2.70;;;1.15;;
51184;SDS011;37248;59.350;18.050;2022-09-13T14:55:07;2.08;;;1.10;;
51184;SDS011;37248;59.350;18.050;2022-09-13T14:57:38;3.33;;;1.30;;
51184;SDS011;37248;59.350;18.050;2022-09-13T15:00:05;2.63;;;1.35;;
51184;SDS011;37248;59.350;18.050;2022-09-13T15:02:37;2.63;;;1.20;;
51184;SDS011;37248;59.350;18.050;2022-09-13T15:05:03;4.03;;;1.10;;
51184;SDS011;37248;59.350;18.050;2022-09-13T15:07:34;2.15;;;1.10;;
51184;SDS011;37248;59.350;18.050;2022-09-13T15:12:33;5.55;;;2.28;;
51184;SDS011;37248;59.350;18.050;2022-09-13T15:20:43;5.60;;;2.47;;
51184;SDS011;37248;59.350;18.050;2022-09-13T15:23:28;6.15;;;2.13;;
51184;SDS011;37248;59.350;18.050;2022-09-13T15:28:27;4.70;;;2.03;;
51184;SDS011;37248;59.350;18.050;2022-09-13T15:30:53;5.80;;;2.15;;
51184;SDS011;37248;59.350;18.050;2022-09-13T15:33:29;5.88;;;2.17;;
51184;SDS011;37248;59.350;18.050;2022-09-13T15:36:40;4.85;;;2.22;;
51184;SDS011;37248;59.350;18.050;2022-09-13T15:41:28;3.67;;;1.90;;
51184;SDS011;37248;59.350;18.050;2022-09-13T15:43:55;2.78;;;2.10;;
51184;SDS011;37248;59.350;18.050;2022-09-13T15:46:20;5.03;;;2.00;;
51184;SDS011;37248;59.350;18.050;2022-09-13T15:48:49;5.13;;;2.30;;
51184;SDS011;37248;59.350;18.050;2022-09-13T15:51:15;5.32;;;2.20;;
51184;SDS011;37248;59.350;18.050;2022-09-13T15:53:42;5.77;;;2.10;;
51184;SDS011;37248;59.350;18.050;2022-09-13T15:56:08;6.68;;;2.35;;
51184;SDS011;37248;59.350;18.050;2022-09-13T15:58:36;4.65;;;2.15;;
51184;SDS011;37248;59.350;18.050;2022-09-13T16:01:02;5.53;;;2.07;;
51184;SDS011;37248;59.350;18.050;2022-09-13T16:03:28;5.33;;;2.07;;
51184;SDS011;37248;59.350;18.050;2022-09-13T16:05:53;3.60;;;1.77;;
51184;SDS011;37248;59.350;18.050;2022-09-13T16:08:18;3.17;;;1.83;;
51184;SDS011;37248;59.350;18.050;2022-09-13T16:10:44;4.03;;;1.50;;
51184;SDS011;37248;59.350;18.050;2022-09-13T16:13:09;2.90;;;1.53;;
51184;SDS011;37248;59.350;18.050;2022-09-13T16:15:35;4.70;;;1.90;;
51184;SDS011;37248;59.350;18.050;2022-09-13T16:18:00;4.67;;;1.70;;
51184;SDS011;37248;59.350;18.050;2022-09-13T16:20:25;4.70;;;1.50;;
51184;SDS011;37248;59.350;18.050;2022-09-13T16:22:51;3.97;;;1.45;;
51184;SDS011;37248;59.350;18.050;2022-09-13T16:25:17;6.50;;;1.40;;
51184;SDS011;37248;59.350;18.050;2022-09-13T16:27:42;3.03;;;1.15;;
51184;SDS011;37248;59.350;18.050;2022-09-13T16:30:12;2.67;;;1.30;;
51184;SDS011;37248;59.350;18.050;2022-09-13T16:32:38;2.90;;;1.15;;
51184;SDS011;37248;59.350;18.050;2022-09-13T16:35:03;1.60;;;0.90;;
51184;SDS011;37248;59.350;18.050;2022-09-13T16:37:28;4.57;;;0.97;;
51184;SDS011;37248;59.350;18.050;2022-09-13T16:39:57;4.10;;;0.93;;
51184;SDS011;37248;59.350;18.050;2022-09-13T16:42:22;4.35;;;1.10;;
51184;SDS011;37248;59.350;18.050;2022-09-13T16:44:47;2.73;;;1.10;;
51184;SDS011;37248;59.350;18.050;2022-09-13T16:47:12;1.93;;;0.83;;
51184;SDS011;37248;59.350;18.050;2022-09-13T16:49:38;4.80;;;1.00;;
51184;SDS011;37248;59.350;18.050;2022-09-13T16:52:03;2.83;;;1.10;;
51184;SDS011;37248;59.350;18.050;2022-09-13T16:54:29;6.97;;;1.50;;
51184;SDS011;37248;59.350;18.050;2022-09-13T16:56:55;3.50;;;1.00;;
51184;SDS011;37248;59.350;18.050;2022-09-13T16:59:21;6.85;;;1.42;;
51184;SDS011;37248;59.350;18.050;2022-09-13T17:01:46;3.40;;;1.10;;
51184;SDS011;37248;59.350;18.050;2022-09-13T17:04:11;6.00;;;1.17;;
51184;SDS011;37248;59.350;18.050;2022-09-13T17:06:37;2.70;;;1.10;;
51184;SDS011;37248;59.350;18.050;2022-09-13T17:09:03;4.43;;;1.30;;
51184;SDS011;37248;59.350;18.050;2022-09-13T17:11:30;4.25;;;1.10;;
51184;SDS011;37248;59.350;18.050;2022-09-13T17:13:55;4.07;;;1.30;;
51184;SDS011;37248;59.350;18.050;2022-09-13T17:18:49;3.20;;;1.40;;
51184;SDS011;37248;59.350;18.050;2022-09-13T17:21:14;4.30;;;1.27;;
51184;SDS011;37248;59.350;18.050;2022-09-13T17:23:40;5.43;;;1.57;;
51184;SDS011;37248;59.350;18.050;2022-09-13T17:26:05;4.53;;;1.27;;
51184;SDS011;37248;59.350;18.050;2022-09-13T17:28:30;6.83;;;1.37;;
51184;SDS011;37248;59.350;18.050;2022-09-13T17:30:55;3.80;;;1.30;;
51184;SDS011;37248;59.350;18.050;2022-09-13T17:33:20;3.43;;;1.23;;
51184;SDS011;37248;59.350;18.050;2022-09-13T17:35:46;3.70;;;1.30;;
51184;SDS011;37248;59.350;18.050;2022-09-13T17:38:11;3.97;;;1.30;;
51184;SDS011;37248;59.350;18.050;2022-09-13T17:40:39;3.60;;;1.23;;
51184;SDS011;37248;59.350;18.050;2022-09-13T17:43:05;2.50;;;1.17;;
51184;SDS011;37248;59.350;18.050;2022-09-13T17:45:31;3.88;;;1.45;;
51184;SDS011;37248;59.350;18.050;2022-09-13T17:47:56;4.53;;;1.40;;
51184;SDS011;37248;59.350;18.050;2022-09-13T17:50:22;4.05;;;1.60;;
51184;SDS011;37248;59.350;18.050;2022-09-13T17:52:48;3.83;;;1.57;;
51184;SDS011;37248;59.350;18.050;2022-09-13T17:55:15;3.58;;;1.65;;
51184;SDS011;37248;59.350;18.050;2022-09-13T17:57:40;2.80;;;1.60;;
51184;SDS011;37248;59.350;18.050;2022-09-13T18:00:06;4.13;;;1.80;;